Peotone Weather
Station Historical Data
 
Daily Summary for February 12, 2016 Units:  English    Metric   Both
« Previous Day
Next Day »
Daily Weekly Monthly Yearly Custom
  Current: High: Low: Average:
Temperature: 25.2 °F 25.3 °F 19.1 °F 21.1 °F
Dew Point: 14.4 °F 18.6 °F 13.1 °F 15.4 °F
Humidity: 63% 85% 63% 78%
Wind Speed: 12.6mph 24.1mph 0.0mph 8.2mph
Wind Gust: 28.8mph 34.5mph - -
WindNW - - West
Pressure: 30.21 in 30.31 in 30.20 in -
Precipitation: 0.00 in      
Historical Graphs
 
 
Tabular Data for February 12, 2016
Time Temperature Dew Point Pressure Wind Wind Speed Wind Gust Humidity Rainfall Rate (Hourly) solar Conditions
00:00 20.0 °F 13.1 °F 30.31 in West 3.5 mph 4.6 mph 74% 0.00 in 0.00 W/m2
00:05 20.0 °F 13.4 °F 30.31 in West 3.4 mph 4.6 mph 75% 0.00 in 0.00 W/m2
00:10 20.0 °F 13.4 °F 30.31 in West 1.1 mph 4.6 mph 75% 0.00 in 0.00 W/m2
00:15 20.0 °F 13.4 °F 30.31 in West 1.1 mph 5.8 mph 75% 0.00 in 0.00 W/m2
00:20 20.0 °F 13.4 °F 30.30 in WSW 1.1 mph 4.6 mph 75% 0.00 in 0.00 W/m2
00:25 20.0 °F 13.7 °F 30.30 in WSW 3.4 mph 3.4 mph 76% 0.00 in 0.00 W/m2
00:30 20.0 °F 13.4 °F 30.30 in Calm   4.6 mph 75% 0.00 in 0.00 W/m2
00:35 20.0 °F 13.7 °F 30.29 in WSW 2.3 mph 5.8 mph 76% 0.00 in 0.00 W/m2
00:40 20.0 °F 13.7 °F 30.29 in WSW 2.3 mph 4.6 mph 76% 0.00 in 0.00 W/m2
00:45 20.1 °F 13.8 °F 30.29 in WSW 2.3 mph 3.4 mph 76% 0.00 in 0.00 W/m2
00:50 20.2 °F 13.9 °F 30.28 in WSW 3.4 mph 3.4 mph 76% 0.00 in 0.00 W/m2
00:55 20.2 °F 13.9 °F 30.28 in WSW 6.9 mph 6.9 mph 76% 0.00 in 0.00 W/m2
00:56 20.2 °F 13.9 °F 30.28 in WSW 4.6 mph 6.9 mph 76% 0.00 in 0.00 W/m2
01:00 20.1 °F 14.1 °F 30.28 in WSW 4.6 mph 8.1 mph 77% 0.00 in 0.00 W/m2
01:01 20.1 °F 14.1 °F 30.28 in WSW 5.8 mph 5.8 mph 77% 0.00 in 0.00 W/m2
01:05 19.9 °F 13.9 °F 30.28 in SW 3.5 mph 6.9 mph 77% 0.00 in 0.00 W/m2
01:06 19.9 °F 13.9 °F 30.28 in SW 3.4 mph 3.4 mph 77% 0.00 in 0.00 W/m2
01:10 19.7 °F 13.7 °F 30.28 in SW 4.6 mph 8.1 mph 77% 0.00 in 0.00 W/m2
01:11 19.7 °F 13.7 °F 30.28 in SW 2.3 mph 4.6 mph 77% 0.00 in 0.00 W/m2
01:15 19.5 °F 13.8 °F 30.27 in SW 3.5 mph 5.8 mph 78% 0.00 in 0.00 W/m2
01:16 19.5 °F 13.8 °F 30.27 in SW 2.3 mph 3.4 mph 78% 0.00 in 0.00 W/m2
01:20 19.4 °F 13.7 °F 30.27 in SW 4.6 mph 4.6 mph 78% 0.00 in 0.00 W/m2
01:25 19.2 °F 13.5 °F 30.27 in SW 2.3 mph 4.6 mph 78% 0.00 in 0.00 W/m2
01:26 19.2 °F 13.5 °F 30.27 in SW 3.4 mph 3.4 mph 78% 0.00 in 0.00 W/m2
01:30 19.1 °F 13.7 °F 30.27 in Calm   3.5 mph 79% 0.00 in 0.00 W/m2
01:31 19.2 °F 13.8 °F 30.27 in SW 1.1 mph 1.1 mph 79% 0.00 in 0.00 W/m2
01:35 19.3 °F 13.9 °F 30.27 in SW 2.3 mph 6.9 mph 79% 0.00 in 0.00 W/m2
01:36 19.3 °F 13.9 °F 30.27 in SW 2.3 mph 3.4 mph 79% 0.00 in 0.00 W/m2
01:41 19.4 °F 14.0 °F 30.27 in SW 1.1 mph 3.4 mph 79% 0.00 in 0.00 W/m2
01:45 19.5 °F 14.1 °F 30.27 in SW 3.5 mph 5.8 mph 79% 0.00 in 0.00 W/m2
01:46 19.5 °F 14.1 °F 30.27 in SW 3.4 mph 3.4 mph 79% 0.00 in 0.00 W/m2
01:50 19.5 °F 14.4 °F 30.26 in SW 2.3 mph 4.6 mph 80% 0.00 in 0.00 W/m2
01:51 19.5 °F 14.4 °F 30.26 in SW 1.1 mph 2.3 mph 80% 0.00 in 0.00 W/m2
01:56 19.5 °F 14.4 °F 30.26 in Calm   2.3 mph 80% 0.00 in 0.00 W/m2
02:00 19.5 °F 14.4 °F 30.26 in SW 1.1 mph 4.6 mph 80% 0.00 in 0.00 W/m2
02:05 19.4 °F 14.2 °F 30.26 in SW 2.3 mph 4.6 mph 80% 0.00 in 0.00 W/m2
02:06 19.4 °F 14.2 °F 30.26 in SW 1.1 mph 2.3 mph 80% 0.00 in 0.00 W/m2
02:10 19.4 °F 14.2 °F 30.26 in SW 4.6 mph 6.9 mph 80% 0.00 in 0.00 W/m2
02:11 19.4 °F 14.2 °F 30.26 in SW 2.3 mph 5.8 mph 80% 0.00 in 0.00 W/m2
02:15 19.5 °F 14.4 °F 30.26 in SW 2.3 mph 5.8 mph 80% 0.00 in 0.00 W/m2
02:20 19.5 °F 14.4 °F 30.25 in SW 3.5 mph 5.8 mph 80% 0.00 in 0.00 W/m2
02:22 19.5 °F 14.4 °F 30.25 in SW 4.6 mph 5.8 mph 80% 0.00 in 0.00 W/m2
02:25 19.5 °F 14.4 °F 30.25 in SW 4.6 mph 5.8 mph 80% 0.00 in 0.00 W/m2
02:32 19.5 °F 14.1 °F 30.25 in SW 4.6 mph 4.6 mph 79% 0.00 in 0.00 W/m2
02:35 19.5 °F 14.1 °F 30.25 in SW 3.5 mph 5.8 mph 79% 0.00 in 0.00 W/m2
02:37 19.5 °F 14.1 °F 30.25 in SW 4.6 mph 5.8 mph 79% 0.00 in 0.00 W/m2
02:40 19.6 °F 14.2 °F 30.25 in SW 3.5 mph 5.8 mph 79% 0.00 in 0.00 W/m2
02:42 19.6 °F 14.2 °F 30.25 in SW 3.4 mph 5.8 mph 79% 0.00 in 0.00 W/m2
02:45 19.6 °F 14.2 °F 30.25 in SW 2.3 mph 8.1 mph 79% 0.00 in 0.00 W/m2
02:47 19.6 °F 14.2 °F 30.25 in SW 5.8 mph 5.8 mph 79% 0.00 in 0.00 W/m2
02:50 19.6 °F 14.2 °F 30.25 in SW 4.6 mph 8.1 mph 79% 0.00 in 0.00 W/m2
02:52 19.7 °F 14.3 °F 30.25 in SW 4.6 mph 4.6 mph 79% 0.00 in 0.00 W/m2
02:55 19.7 °F 14.3 °F 30.25 in SW 3.5 mph 8.1 mph 79% 0.00 in 0.00 W/m2
02:57 19.7 °F 14.3 °F 30.25 in SW 5.8 mph 5.8 mph 79% 0.00 in 0.00 W/m2
03:04 19.8 °F 14.4 °F 30.24 in SW 2.3 mph 2.3 mph 79% 0.00 in 0.00 W/m2
03:09 19.8 °F 14.4 °F 30.24 in SW 3.4 mph 4.6 mph 79% 0.00 in 0.00 W/m2
03:14 19.7 °F 14.3 °F 30.24 in SW 2.3 mph 5.8 mph 79% 0.00 in 0.00 W/m2
03:19 19.7 °F 14.5 °F 30.24 in SW 1.1 mph 4.6 mph 80% 0.00 in 0.00 W/m2
03:24 19.7 °F 14.5 °F 30.24 in SW 3.4 mph 5.8 mph 80% 0.00 in 0.00 W/m2
03:29 19.8 °F 14.6 °F 30.23 in SW 1.1 mph 8.1 mph 80% 0.00 in 0.00 W/m2
03:35 19.8 °F 14.6 °F 30.23 in SW 4.6 mph 5.8 mph 80% 0.00 in 0.00 W/m2
03:40 19.8 °F 14.6 °F 30.23 in SW 4.6 mph 6.9 mph 80% 0.00 in 0.00 W/m2
03:45 19.8 °F 14.6 °F 30.23 in SW 5.8 mph 5.8 mph 80% 0.00 in 0.00 W/m2
03:50 19.9 °F 15.0 °F 30.23 in SW 3.4 mph 4.6 mph 81% 0.00 in 0.00 W/m2
03:55 20.0 °F 15.1 °F 30.23 in SW 5.8 mph 8.1 mph 81% 0.00 in 0.00 W/m2
04:00 20.2 °F 15.3 °F 30.23 in SW 4.6 mph 6.9 mph 81% 0.00 in 0.00 W/m2
04:05 20.3 °F 15.4 °F 30.23 in SW 4.6 mph 6.9 mph 81% 0.00 in 0.00 W/m2
04:15 20.5 °F 15.6 °F 30.23 in SW 4.6 mph 8.1 mph 81% 0.00 in 0.00 W/m2
04:20 20.6 °F 15.7 °F 30.23 in SW 4.6 mph 8.1 mph 81% 0.00 in 0.00 W/m2
04:25 20.7 °F 15.8 °F 30.23 in SW 6.9 mph 8.1 mph 81% 0.00 in 0.00 W/m2
04:30 20.8 °F 15.9 °F 30.23 in WSW 3.4 mph 8.1 mph 81% 0.00 in 0.00 W/m2
04:35 20.9 °F 16.0 °F 30.23 in WSW 3.4 mph 6.9 mph 81% 0.00 in 0.00 W/m2
04:40 21.0 °F 16.1 °F 30.23 in WSW 4.6 mph 8.1 mph 81% 0.00 in 0.00 W/m2
04:45 21.0 °F 16.1 °F 30.23 in WSW 3.4 mph 6.9 mph 81% 0.00 in 0.00 W/m2
04:50 21.1 °F 16.2 °F 30.23 in WSW 3.4 mph 8.1 mph 81% 0.00 in 0.00 W/m2
04:55 21.0 °F 16.1 °F 30.22 in WSW 10.3 mph 10.3 mph 81% 0.00 in 0.00 W/m2
05:00 21.0 °F 16.1 °F 30.22 in WSW 3.4 mph 5.8 mph 81% 0.00 in 0.00 W/m2
05:06 21.0 °F 16.1 °F 30.22 in WSW 9.2 mph 9.2 mph 81% 0.00 in 0.00 W/m2
05:11 21.0 °F 16.1 °F 30.22 in WSW 9.2 mph 9.2 mph 81% 0.00 in 0.00 W/m2
05:16 21.0 °F 16.1 °F 30.22 in SW 5.8 mph 5.8 mph 81% 0.00 in 0.00 W/m2
05:21 20.9 °F 16.0 °F 30.22 in SW 8.1 mph 8.1 mph 81% 0.00 in 0.00 W/m2
05:26 20.8 °F 15.9 °F 30.22 in WSW 8.1 mph 8.1 mph 81% 0.00 in 0.00 W/m2
05:31 20.7 °F 15.8 °F 30.22 in SW 3.4 mph 5.8 mph 81% 0.00 in 0.00 W/m2
05:36 20.6 °F 16.0 °F 30.22 in SW 4.6 mph 5.8 mph 82% 0.00 in 0.00 W/m2
05:41 20.4 °F 15.8 °F 30.22 in WSW 1.1 mph 4.6 mph 82% 0.00 in 0.00 W/m2
05:46 20.4 °F 15.8 °F 30.22 in WSW 3.4 mph 4.6 mph 82% 0.00 in 0.00 W/m2
05:51 20.3 °F 15.7 °F 30.22 in WSW 2.3 mph 4.6 mph 82% 0.00 in 0.00 W/m2
05:56 20.3 °F 16.0 °F 30.22 in WSW 6.9 mph 6.9 mph 83% 0.00 in 0.00 W/m2
06:06 20.2 °F 15.9 °F 30.22 in WSW 4.6 mph 6.9 mph 83% 0.00 in 0.00 W/m2
06:11 20.2 °F 15.9 °F 30.22 in West 5.8 mph 5.8 mph 83% 0.00 in 0.00 W/m2
06:16 20.2 °F 15.9 °F 30.22 in West 4.6 mph 6.9 mph 83% 0.00 in 0.00 W/m2
06:26 20.3 °F 16.2 °F 30.22 in WSW 4.6 mph 6.9 mph 84% 0.00 in 0.00 W/m2
06:32 20.2 °F 16.1 °F 30.22 in WSW 6.9 mph 9.2 mph 84% 0.00 in 0.00 W/m2
06:37 20.2 °F 15.9 °F 30.22 in WSW 5.8 mph 5.8 mph 83% 0.00 in 0.00 W/m2
06:42 20.2 °F 15.9 °F 30.22 in West 4.6 mph 6.9 mph 83% 0.00 in 0.00 W/m2
06:47 20.2 °F 16.1 °F 30.21 in West 5.8 mph 6.9 mph 84% 0.00 in 0.00 W/m2
06:52 20.0 °F 15.9 °F 30.22 in WSW 3.4 mph 5.8 mph 84% 0.00 in 0.00 W/m2
06:57 20.0 °F 15.9 °F 30.21 in West 8.1 mph 8.1 mph 84% 0.00 in 5.00 W/m2
07:02 20.0 °F 15.7 °F 30.21 in West 4.6 mph 6.9 mph 83% 0.00 in 9.00 W/m2
07:07 19.9 °F 15.6 °F 30.21 in West 6.9 mph 8.1 mph 83% 0.00 in 11.00 W/m2
07:12 19.9 °F 15.6 °F 30.21 in West 5.8 mph 6.9 mph 83% 0.00 in 14.00 W/m2
07:17 19.8 °F 15.8 °F 30.21 in West 3.4 mph 6.9 mph 84% 0.00 in 23.00 W/m2
07:22 19.8 °F 15.8 °F 30.21 in West 4.6 mph 10.3 mph 84% 0.00 in 44.00 W/m2
07:27 20.1 °F 16.0 °F 30.21 in West 5.8 mph 8.1 mph 84% 0.00 in 63.00 W/m2
07:32 20.4 °F 16.4 °F 30.21 in West 4.6 mph 8.1 mph 84% 0.00 in 74.00 W/m2
07:37 20.6 °F 16.5 °F 30.21 in West 6.9 mph 9.2 mph 84% 0.00 in 51.00 W/m2
07:42 20.8 °F 16.5 °F 30.22 in West 6.9 mph 9.2 mph 83% 0.00 in 49.00 W/m2
07:47 21.1 °F 16.8 °F 30.22 in West 6.9 mph 8.1 mph 83% 0.00 in 49.00 W/m2
07:52 21.3 °F 16.7 °F 30.22 in West 8.1 mph 12.6 mph 82% 0.00 in 49.00 W/m2
07:58 21.4 °F 16.8 °F 30.22 in NW 18.4 mph 18.4 mph 82% 0.00 in 46.00 W/m2
08:08 21.6 °F 16.1 °F 30.22 in West 4.6 mph 10.3 mph 79% 0.00 in 42.00 W/m2
08:13 21.7 °F 16.2 °F 30.22 in West 9.2 mph 11.5 mph 79% 0.00 in 40.00 W/m2
08:18 21.8 °F 16.0 °F 30.21 in West 9.2 mph 18.4 mph 78% 0.00 in 49.00 W/m2
08:23 21.8 °F 15.7 °F 30.21 in WNW 12.6 mph 13.8 mph 77% 0.00 in 49.00 W/m2
08:28 21.9 °F 15.8 °F 30.21 in West 4.6 mph 11.5 mph 77% 0.00 in 51.00 W/m2
08:33 22.0 °F 15.9 °F 30.21 in West 9.2 mph 16.1 mph 77% 0.00 in 51.00 W/m2
08:38 22.1 °F 16.0 °F 30.22 in NW 10.3 mph 12.6 mph 77% 0.00 in 51.00 W/m2
08:48 22.2 °F 15.8 °F 30.21 in West 9.2 mph 13.8 mph 76% 0.00 in 47.00 W/m2
08:53 22.2 °F 16.1 °F 30.22 in WNW 12.6 mph 12.6 mph 77% 0.00 in 47.00 W/m2
08:58 22.2 °F 15.8 °F 30.22 in WSW 10.3 mph 14.9 mph 76% 0.00 in 42.00 W/m2
09:04 22.3 °F 15.9 °F 30.22 in West 13.8 mph 17.2 mph 76% 0.00 in 53.00 W/m2
09:09 22.2 °F 16.1 °F 30.22 in WNW 13.8 mph 14.9 mph 77% 0.00 in 63.00 W/m2
09:14 22.3 °F 16.2 °F 30.21 in WNW 6.9 mph 16.1 mph 77% 0.00 in 67.00 W/m2
09:19 22.3 °F 16.2 °F 30.21 in NW 11.5 mph 18.4 mph 77% 0.00 in 60.00 W/m2
09:24 22.2 °F 16.1 °F 30.21 in WNW 13.8 mph 14.9 mph 77% 0.00 in 63.00 W/m2
09:29 22.2 °F 16.4 °F 30.20 in WSW 4.6 mph 19.5 mph 78% 0.00 in 90.00 W/m2
09:34 22.2 °F 16.7 °F 30.21 in WNW 16.1 mph 18.4 mph 79% 0.00 in 128.00 W/m2
09:39 22.1 °F 17.2 °F 30.21 in WNW 11.5 mph 21.9 mph 81% 0.00 in 146.00 W/m2
09:44 21.9 °F 17.5 °F 30.21 in WNW 10.3 mph 18.4 mph 83% 0.00 in 200.00 W/m2
09:49 22.1 °F 18.0 °F 30.21 in WNW 12.6 mph 18.4 mph 84% 0.00 in 216.00 W/m2
09:54 22.2 °F 18.4 °F 30.21 in NNW 10.3 mph 17.2 mph 85% 0.00 in 207.00 W/m2
09:59 22.3 °F 18.5 °F 30.21 in WNW 14.9 mph 16.1 mph 85% 0.00 in 192.00 W/m2
10:04 22.4 °F 18.6 °F 30.22 in WNW 10.3 mph 16.1 mph 85% 0.00 in 195.00 W/m2
10:10 22.3 °F 18.5 °F 30.21 in WNW 9.2 mph 20.7 mph 85% 0.00 in 162.00 W/m2
10:25 22.3 °F 18.5 °F 30.22 in WNW 17.2 mph 21.9 mph 85% 0.00 in 195.00 W/m2
10:30 22.2 °F 18.4 °F 30.22 in WNW 18.4 mph 18.4 mph 85% 0.00 in 218.00 W/m2
10:35 22.3 °F 18.5 °F 30.22 in West 13.8 mph 17.2 mph 85% 0.00 in 155.00 W/m2
10:40 22.3 °F 18.5 °F 30.22 in WNW 20.7 mph 20.7 mph 85% 0.00 in 155.00 W/m2
10:45 22.1 °F 18.0 °F 30.22 in NW 6.9 mph 21.9 mph 84% 0.00 in 167.00 W/m2
10:50 22.1 °F 18.0 °F 30.22 in NW 12.6 mph 24.1 mph 84% 0.00 in 257.00 W/m2
10:55 22.2 °F 17.8 °F 30.22 in WNW 19.5 mph 24.1 mph 83% 0.00 in 278.00 W/m2
11:00 22.3 °F 17.6 °F 30.22 in West 21.9 mph 23.0 mph 82% 0.00 in 260.00 W/m2
11:05 22.5 °F 17.3 °F 30.22 in WNW 16.1 mph 26.4 mph 80% 0.00 in 316.00 W/m2
11:10 22.3 °F 16.8 °F 30.22 in NW 20.7 mph 23.0 mph 79% 0.00 in 427.00 W/m2
11:15 23.1 °F 17.9 °F 30.22 in WNW 14.9 mph 21.9 mph 80% 0.00 in 705.00 W/m2
11:20 23.2 °F 17.7 °F 30.22 in NW 17.2 mph 25.3 mph 79% 0.00 in 334.00 W/m2
11:25 23.1 °F 17.6 °F 30.22 in WNW 11.5 mph 21.9 mph 79% 0.00 in 250.00 W/m2
11:30 23.5 °F 18.0 °F 30.21 in NW 17.2 mph 17.2 mph 79% 0.00 in 199.00 W/m2
11:36 23.2 °F 17.7 °F 30.21 in NW 17.2 mph 19.5 mph 79% 0.00 in 308.00 W/m2
11:41 23.1 °F 17.3 °F 30.21 in WNW 11.5 mph 14.9 mph 78% 0.00 in 199.00 W/m2
11:46 23.0 °F 17.2 °F 30.21 in WNW 19.5 mph 20.7 mph 78% 0.00 in 221.00 W/m2
11:56 23.4 °F 17.3 °F 30.21 in WNW 13.8 mph 24.1 mph 77% 0.00 in 703.00 W/m2
12:06 23.9 °F 17.1 °F 30.22 in WNW 14.9 mph 16.1 mph 75% 0.00 in 253.00 W/m2
12:11 23.4 °F 16.4 °F 30.22 in NW 19.5 mph 19.5 mph 74% 0.00 in 297.00 W/m2
12:16 23.2 °F 16.2 °F 30.22 in NW 14.9 mph 19.5 mph 74% 0.00 in 260.00 W/m2
12:21 23.6 °F 16.9 °F 30.21 in NNW 21.9 mph 21.9 mph 75% 0.00 in 656.00 W/m2
12:26 23.5 °F 15.8 °F 30.21 in WNW 19.5 mph 25.3 mph 72% 0.00 in 237.00 W/m2
12:31 24.1 °F 16.4 °F 30.21 in West 19.5 mph 26.4 mph 72% 0.00 in 585.00 W/m2
12:36 24.4 °F 16.0 °F 30.21 in NNW 20.7 mph 28.8 mph 70% 0.00 in 403.00 W/m2
12:41 24.6 °F 15.9 °F 30.21 in NW 20.7 mph 25.3 mph 69% 0.00 in 503.00 W/m2
12:51 24.7 °F 16.3 °F 30.21 in NW 17.2 mph 24.1 mph 70% 0.00 in 271.00 W/m2
12:56 25.3 °F 16.6 °F 30.21 in NW 18.4 mph 34.5 mph 69% 0.00 in 522.00 W/m2
13:02 25.2 °F 15.4 °F 30.21 in WNW 24.1 mph 24.1 mph 66% 0.00 in 529.00 W/m2
13:07 24.8 °F 15.1 °F 30.21 in NW 17.2 mph 27.6 mph 66% 0.00 in 239.00 W/m2
13:12 24.5 °F 15.1 °F 30.21 in NW 16.1 mph 23.0 mph 67% 0.00 in 367.00 W/m2
13:17 24.5 °F 14.8 °F 30.21 in NW 10.3 mph 18.4 mph 66% 0.00 in 153.00 W/m2
13:22 23.8 °F 13.8 °F 30.20 in WNW 16.1 mph 21.9 mph 65% 0.00 in 146.00 W/m2
13:27 23.4 °F 13.4 °F 30.21 in NW 24.1 mph 24.1 mph 65% 0.00 in 107.00 W/m2
13:32 23.4 °F 13.7 °F 30.21 in NW 17.2 mph 18.4 mph 66% 0.00 in 134.00 W/m2
13:37 23.4 °F 13.7 °F 30.21 in WNW 13.8 mph 18.4 mph 66% 0.00 in 91.00 W/m2
13:42 23.1 °F 13.1 °F 30.21 in NW 23.0 mph 28.8 mph 65% 0.00 in 86.00 W/m2
13:47 23.8 °F 13.8 °F 30.21 in WNW 13.8 mph 26.4 mph 65% 0.00 in 262.00 W/m2
13:52 23.9 °F 13.9 °F 30.21 in West 14.9 mph 24.1 mph 65% 0.00 in 232.00 W/m2
13:57 23.9 °F 13.5 °F 30.21 in NW 21.9 mph 24.1 mph 64% 0.00 in 475.00 W/m2
14:02 23.8 °F 13.4 °F 30.21 in NW 16.1 mph 24.1 mph 64% 0.00 in 88.00 W/m2
14:07 24.1 °F 13.3 °F 30.21 in NW 13.8 mph 24.1 mph 63% 0.00 in 515.00 W/m2
14:12 25.2 °F 14.4 °F 30.21 in NW 12.6 mph 28.8 mph 63% 0.00 in 533.00 W/m2
Peotone Weather Data
Compliments of Weather Underground